sensor_id;sensor_type;location;lat;lon;timestamp;pressure;altitude;pressure_sealevel;temperature;humidity
60019;BME280;45870;42.528;26.740;2024-01-30T00:00:32;101792.09;;;6.02;50.97
60019;BME280;45870;42.528;26.740;2024-01-30T00:02:57;101794.72;;;5.85;50.96
60019;BME280;45870;42.528;26.740;2024-01-30T00:05:23;101780.91;;;6.25;49.68
60019;BME280;45870;42.528;26.740;2024-01-30T00:07:49;101779.44;;;6.13;49.81
60019;BME280;45870;42.528;26.740;2024-01-30T00:10:15;101777.91;;;6.28;49.76
60019;BME280;45870;42.528;26.740;2024-01-30T00:12:41;101769.84;;;5.75;50.61
60019;BME280;45870;42.528;26.740;2024-01-30T00:15:06;101768.78;;;5.23;51.69
60019;BME280;45870;42.528;26.740;2024-01-30T00:17:34;101776.22;;;6.09;49.52
60019;BME280;45870;42.528;26.740;2024-01-30T00:20:00;101773.00;;;5.88;49.95
60019;BME280;45870;42.528;26.740;2024-01-30T00:22:26;101775.94;;;5.94;50.20
60019;BME280;45870;42.528;26.740;2024-01-30T00:24:51;101780.38;;;5.41;51.29
60019;BME280;45870;42.528;26.740;2024-01-30T00:27:16;101787.94;;;5.73;49.80
60019;BME280;45870;42.528;26.740;2024-01-30T00:29:42;101789.56;;;6.36;48.39
60019;BME280;45870;42.528;26.740;2024-01-30T00:32:07;101786.56;;;6.65;47.72
60019;BME280;45870;42.528;26.740;2024-01-30T00:34:32;101791.09;;;7.32;45.87
60019;BME280;45870;42.528;26.740;2024-01-30T00:36:58;101793.28;;;6.43;47.94
60019;BME280;45870;42.528;26.740;2024-01-30T00:39:23;101799.78;;;6.41;48.56
60019;BME280;45870;42.528;26.740;2024-01-30T00:41:49;101800.97;;;6.21;49.00
60019;BME280;45870;42.528;26.740;2024-01-30T00:44:14;101799.03;;;6.31;49.03
60019;BME280;45870;42.528;26.740;2024-01-30T00:46:40;101810.38;;;6.42;48.65
60019;BME280;45870;42.528;26.740;2024-01-30T00:49:05;101801.03;;;6.72;47.62
60019;BME280;45870;42.528;26.740;2024-01-30T00:51:30;101804.69;;;5.75;50.46
60019;BME280;45870;42.528;26.740;2024-01-30T00:53:56;101804.72;;;5.92;50.17
60019;BME280;45870;42.528;26.740;2024-01-30T00:56:21;101800.53;;;5.90;50.19
60019;BME280;45870;42.528;26.740;2024-01-30T00:58:47;101798.53;;;6.10;49.67
60019;BME280;45870;42.528;26.740;2024-01-30T01:01:12;101795.50;;;6.30;49.20
60019;BME280;45870;42.528;26.740;2024-01-30T01:03:38;101789.47;;;6.28;49.08
60019;BME280;45870;42.528;26.740;2024-01-30T01:06:05;101788.03;;;5.98;50.10
60019;BME280;45870;42.528;26.740;2024-01-30T01:08:31;101786.31;;;5.80;50.09
60019;BME280;45870;42.528;26.740;2024-01-30T01:10:56;101786.78;;;5.30;51.46
60019;BME280;45870;42.528;26.740;2024-01-30T01:13:22;101789.00;;;5.80;50.22
60019;BME280;45870;42.528;26.740;2024-01-30T01:15:47;101795.69;;;6.11;49.52
60019;BME280;45870;42.528;26.740;2024-01-30T01:18:12;101794.75;;;6.20;49.16
60019;BME280;45870;42.528;26.740;2024-01-30T01:20:38;101796.00;;;6.08;48.71
60019;BME280;45870;42.528;26.740;2024-01-30T01:23:03;101799.13;;;6.90;47.30
60019;BME280;45870;42.528;26.740;2024-01-30T01:25:28;101792.81;;;6.99;46.78
60019;BME280;45870;42.528;26.740;2024-01-30T01:27:54;101793.16;;;6.96;46.58
60019;BME280;45870;42.528;26.740;2024-01-30T01:30:19;101791.34;;;6.53;46.94
60019;BME280;45870;42.528;26.740;2024-01-30T01:32:49;101790.94;;;6.92;46.31
60019;BME280;45870;42.528;26.740;2024-01-30T01:35:24;101791.13;;;6.98;45.64
60019;BME280;45870;42.528;26.740;2024-01-30T01:37:51;101783.78;;;6.75;46.27
60019;BME280;45870;42.528;26.740;2024-01-30T01:40:24;101787.78;;;7.04;45.83
60019;BME280;45870;42.528;26.740;2024-01-30T01:42:53;101780.31;;;6.82;46.29
60019;BME280;45870;42.528;26.740;2024-01-30T01:45:19;101781.09;;;6.49;47.08
60019;BME280;45870;42.528;26.740;2024-01-30T01:47:45;101777.56;;;6.74;46.02
60019;BME280;45870;42.528;26.740;2024-01-30T01:50:12;101773.84;;;6.24;47.65
60019;BME280;45870;42.528;26.740;2024-01-30T01:52:38;101766.44;;;6.18;47.90
60019;BME280;45870;42.528;26.740;2024-01-30T01:55:05;101780.97;;;6.59;47.34
60019;BME280;45870;42.528;26.740;2024-01-30T01:57:33;101771.78;;;6.18;47.71
60019;BME280;45870;42.528;26.740;2024-01-30T01:59:58;101775.84;;;6.22;47.49
60019;BME280;45870;42.528;26.740;2024-01-30T02:02:24;101763.19;;;5.79;48.49
60019;BME280;45870;42.528;26.740;2024-01-30T02:04:53;101767.94;;;6.20;47.84
60019;BME280;45870;42.528;26.740;2024-01-30T02:07:19;101770.41;;;5.96;48.31
60019;BME280;45870;42.528;26.740;2024-01-30T02:09:45;101783.72;;;6.06;48.61
60019;BME280;45870;42.528;26.740;2024-01-30T02:12:10;101773.00;;;6.23;48.04
60019;BME280;45870;42.528;26.740;2024-01-30T02:14:44;101775.16;;;6.02;48.53
60019;BME280;45870;42.528;26.740;2024-01-30T02:17:11;101764.44;;;6.02;48.25
60019;BME280;45870;42.528;26.740;2024-01-30T02:19:37;101769.44;;;6.40;47.44
60019;BME280;45870;42.528;26.740;2024-01-30T02:22:02;101766.28;;;5.84;48.50
60019;BME280;45870;42.528;26.740;2024-01-30T02:24:28;101766.09;;;5.68;49.21
60019;BME280;45870;42.528;26.740;2024-01-30T02:26:53;101758.19;;;5.93;48.17
60019;BME280;45870;42.528;26.740;2024-01-30T02:29:19;101753.97;;;6.09;47.93
60019;BME280;45870;42.528;26.740;2024-01-30T02:31:44;101746.69;;;6.01;48.39
60019;BME280;45870;42.528;26.740;2024-01-30T02:34:11;101751.94;;;6.28;47.54
60019;BME280;45870;42.528;26.740;2024-01-30T02:36:36;101748.72;;;5.72;49.33
60019;BME280;45870;42.528;26.740;2024-01-30T02:39:02;101745.06;;;6.26;48.07
60019;BME280;45870;42.528;26.740;2024-01-30T02:41:27;101750.44;;;5.90;48.45
60019;BME280;45870;42.528;26.740;2024-01-30T02:43:53;101750.78;;;6.13;48.41
60019;BME280;45870;42.528;26.740;2024-01-30T02:46:18;101744.22;;;5.72;48.34
60019;BME280;45870;42.528;26.740;2024-01-30T02:48:44;101747.28;;;6.13;48.02
60019;BME280;45870;42.528;26.740;2024-01-30T02:51:09;101743.22;;;5.73;48.83
60019;BME280;45870;42.528;26.740;2024-01-30T02:53:35;101737.00;;;5.55;48.77
60019;BME280;45870;42.528;26.740;2024-01-30T02:56:01;101754.31;;;5.78;48.82
60019;BME280;45870;42.528;26.740;2024-01-30T02:58:27;101747.13;;;5.79;48.46
60019;BME280;45870;42.528;26.740;2024-01-30T03:00:52;101745.63;;;5.94;47.98
60019;BME280;45870;42.528;26.740;2024-01-30T03:03:18;101764.75;;;5.99;47.85
60019;BME280;45870;42.528;26.740;2024-01-30T03:05:43;101751.97;;;5.93;48.60
60019;BME280;45870;42.528;26.740;2024-01-30T03:08:08;101759.78;;;6.04;48.39
60019;BME280;45870;42.528;26.740;2024-01-30T03:10:34;101750.34;;;6.69;47.10
60019;BME280;45870;42.528;26.740;2024-01-30T03:12:59;101766.44;;;6.18;47.89
60019;BME280;45870;42.528;26.740;2024-01-30T03:15:25;101771.56;;;6.11;48.31
60019;BME280;45870;42.528;26.740;2024-01-30T03:17:50;101766.19;;;6.29;47.32
60019;BME280;45870;42.528;26.740;2024-01-30T03:20:15;101767.09;;;5.84;49.09
60019;BME280;45870;42.528;26.740;2024-01-30T03:22:41;101767.84;;;6.30;47.73
60019;BME280;45870;42.528;26.740;2024-01-30T03:25:06;101777.69;;;6.03;48.41
60019;BME280;45870;42.528;26.740;2024-01-30T03:27:32;101759.03;;;5.67;49.69
60019;BME280;45870;42.528;26.740;2024-01-30T03:29:57;101772.56;;;6.10;48.66
60019;BME280;45870;42.528;26.740;2024-01-30T03:32:22;101764.88;;;5.80;49.88
60019;BME280;45870;42.528;26.740;2024-01-30T03:34:48;101764.16;;;5.87;49.40
60019;BME280;45870;42.528;26.740;2024-01-30T03:37:13;101757.25;;;6.46;48.22
60019;BME280;45870;42.528;26.740;2024-01-30T03:39:39;101771.25;;;6.14;48.81
60019;BME280;45870;42.528;26.740;2024-01-30T03:42:04;101752.28;;;6.08;49.29
60019;BME280;45870;42.528;26.740;2024-01-30T03:44:29;101754.09;;;6.25;49.24
60019;BME280;45870;42.528;26.740;2024-01-30T03:46:55;101735.59;;;6.39;48.33
60019;BME280;45870;42.528;26.740;2024-01-30T03:49:20;101730.50;;;6.11;49.16
60019;BME280;45870;42.528;26.740;2024-01-30T03:51:46;101725.38;;;5.82;49.44
60019;BME280;45870;42.528;26.740;2024-01-30T03:54:12;101724.84;;;6.14;48.81
60019;BME280;45870;42.528;26.740;2024-01-30T03:56:38;101720.94;;;6.08;49.73
60019;BME280;45870;42.528;26.740;2024-01-30T03:59:03;101722.59;;;6.52;48.45
60019;BME280;45870;42.528;26.740;2024-01-30T04:01:29;101719.13;;;6.34;48.39
60019;BME280;45870;42.528;26.740;2024-01-30T04:03:54;101728.75;;;6.19;48.79
60019;BME280;45870;42.528;26.740;2024-01-30T04:06:20;101728.91;;;6.43;48.52
60019;BME280;45870;42.528;26.740;2024-01-30T04:08:45;101745.41;;;6.31;48.38
60019;BME280;45870;42.528;26.740;2024-01-30T04:11:10;101740.69;;;6.50;47.74
60019;BME280;45870;42.528;26.740;2024-01-30T04:13:36;101737.97;;;6.76;47.56
60019;BME280;45870;42.528;26.740;2024-01-30T04:16:01;101741.22;;;6.28;48.31
60019;BME280;45870;42.528;26.740;2024-01-30T04:18:27;101749.69;;;6.41;48.40
60019;BME280;45870;42.528;26.740;2024-01-30T04:20:53;101750.53;;;6.68;47.63
60019;BME280;45870;42.528;26.740;2024-01-30T04:23:18;101756.50;;;6.62;48.71
60019;BME280;45870;42.528;26.740;2024-01-30T04:25:44;101760.03;;;6.62;47.96
60019;BME280;45870;42.528;26.740;2024-01-30T04:28:09;101770.25;;;6.33;48.68
60019;BME280;45870;42.528;26.740;2024-01-30T04:30:37;101775.41;;;6.78;47.84
60019;BME280;45870;42.528;26.740;2024-01-30T04:33:02;101776.97;;;6.37;48.41
60019;BME280;45870;42.528;26.740;2024-01-30T04:35:28;101776.34;;;6.69;47.98
60019;BME280;45870;42.528;26.740;2024-01-30T04:37:56;101786.03;;;6.62;47.68
60019;BME280;45870;42.528;26.740;2024-01-30T04:40:21;101788.91;;;6.42;48.23
60019;BME280;45870;42.528;26.740;2024-01-30T04:42:49;101797.41;;;6.56;47.57
60019;BME280;45870;42.528;26.740;2024-01-30T04:45:14;101799.25;;;7.07;46.95
60019;BME280;45870;42.528;26.740;2024-01-30T04:47:40;101792.19;;;7.47;46.31
60019;BME280;45870;42.528;26.740;2024-01-30T04:50:06;101805.88;;;6.94;47.07
60019;BME280;45870;42.528;26.740;2024-01-30T04:52:32;101795.25;;;7.52;45.58
60019;BME280;45870;42.528;26.740;2024-01-30T04:54:57;101800.28;;;7.14;46.68
60019;BME280;45870;42.528;26.740;2024-01-30T04:57:22;101796.78;;;7.63;45.32
60019;BME280;45870;42.528;26.740;2024-01-30T04:59:48;101813.00;;;7.12;46.45
60019;BME280;45870;42.528;26.740;2024-01-30T05:02:13;101807.72;;;7.70;45.55
60019;BME280;45870;42.528;26.740;2024-01-30T05:04:40;101803.72;;;7.40;46.28
60019;BME280;45870;42.528;26.740;2024-01-30T05:07:05;101806.94;;;7.43;46.08
60019;BME280;45870;42.528;26.740;2024-01-30T05:09:31;101809.72;;;6.92;47.25
60019;BME280;45870;42.528;26.740;2024-01-30T05:11:56;101809.09;;;7.40;46.11
60019;BME280;45870;42.528;26.740;2024-01-30T05:14:22;101809.31;;;6.79;47.46
60019;BME280;45870;42.528;26.740;2024-01-30T05:16:47;101814.91;;;6.93;46.80
60019;BME280;45870;42.528;26.740;2024-01-30T05:19:15;101825.91;;;6.57;48.06
60019;BME280;45870;42.528;26.740;2024-01-30T05:21:42;101815.03;;;7.10;47.00
60019;BME280;45870;42.528;26.740;2024-01-30T05:24:07;101822.09;;;7.19;46.99
60019;BME280;45870;42.528;26.740;2024-01-30T05:26:34;101821.44;;;6.91;47.33
60019;BME280;45870;42.528;26.740;2024-01-30T05:29:00;101823.66;;;7.29;46.53
60019;BME280;45870;42.528;26.740;2024-01-30T05:31:25;101823.22;;;7.08;46.76
60019;BME280;45870;42.528;26.740;2024-01-30T05:33:54;101824.84;;;6.93;46.57
60019;BME280;45870;42.528;26.740;2024-01-30T05:36:20;101826.47;;;6.86;47.44
60019;BME280;45870;42.528;26.740;2024-01-30T05:38:46;101832.28;;;6.56;48.07
60019;BME280;45870;42.528;26.740;2024-01-30T05:41:11;101829.28;;;6.84;47.57
60019;BME280;45870;42.528;26.740;2024-01-30T05:43:36;101823.19;;;6.31;48.59
60019;BME280;45870;42.528;26.740;2024-01-30T05:46:02;101840.66;;;7.04;47.06
60019;BME280;45870;42.528;26.740;2024-01-30T05:48:27;101842.31;;;6.53;48.16
60019;BME280;45870;42.528;26.740;2024-01-30T05:50:53;101832.31;;;7.15;46.99
60019;BME280;45870;42.528;26.740;2024-01-30T05:53:18;101837.63;;;6.99;46.91
60019;BME280;45870;42.528;26.740;2024-01-30T05:55:43;101839.88;;;6.42;48.47
60019;BME280;45870;42.528;26.740;2024-01-30T05:58:09;101840.09;;;6.92;47.54
60019;BME280;45870;42.528;26.740;2024-01-30T06:00:34;101836.88;;;6.45;48.69
60019;BME280;45870;42.528;26.740;2024-01-30T06:03:00;101842.03;;;6.21;49.29
60019;BME280;45870;42.528;26.740;2024-01-30T06:05:25;101842.50;;;5.72;50.03
60019;BME280;45870;42.528;26.740;2024-01-30T06:07:50;101845.56;;;6.39;48.91
60019;BME280;45870;42.528;26.740;2024-01-30T06:10:16;101846.88;;;6.79;48.42
60019;BME280;45870;42.528;26.740;2024-01-30T06:12:41;101837.22;;;6.07;49.93
60019;BME280;45870;42.528;26.740;2024-01-30T06:15:07;101840.31;;;6.56;48.89
60019;BME280;45870;42.528;26.740;2024-01-30T06:17:32;101831.53;;;6.10;50.07
60019;BME280;45870;42.528;26.740;2024-01-30T06:19:58;101833.59;;;6.16;49.38
60019;BME280;45870;42.528;26.740;2024-01-30T06:22:24;101825.50;;;6.26;49.15
60019;BME280;45870;42.528;26.740;2024-01-30T06:24:49;101824.97;;;6.66;48.72
60019;BME280;45870;42.528;26.740;2024-01-30T06:27:15;101822.66;;;6.27;49.14
60019;BME280;45870;42.528;26.740;2024-01-30T06:29:40;101818.66;;;6.14;49.85
60019;BME280;45870;42.528;26.740;2024-01-30T06:32:06;101803.34;;;6.06;50.06
60019;BME280;45870;42.528;26.740;2024-01-30T06:34:31;101826.00;;;5.67;51.50
60019;BME280;45870;42.528;26.740;2024-01-30T06:36:57;101828.22;;;5.98;50.71
60019;BME280;45870;42.528;26.740;2024-01-30T06:39:22;101825.50;;;6.26;50.03
60019;BME280;45870;42.528;26.740;2024-01-30T06:41:48;101815.16;;;6.13;50.04
60019;BME280;45870;42.528;26.740;2024-01-30T06:44:13;101816.81;;;6.49;49.57
60019;BME280;45870;42.528;26.740;2024-01-30T06:46:39;101812.09;;;6.08;49.95
60019;BME280;45870;42.528;26.740;2024-01-30T06:49:04;101820.78;;;6.45;49.24
60019;BME280;45870;42.528;26.740;2024-01-30T06:51:30;101822.50;;;5.93;50.40
60019;BME280;45870;42.528;26.740;2024-01-30T06:53:55;101832.44;;;6.54;49.17
60019;BME280;45870;42.528;26.740;2024-01-30T06:56:21;101631.09;;;5.43;49.06
60019;BME280;45870;42.528;26.740;2024-01-30T06:58:47;101827.78;;;6.82;48.33
60019;BME280;45870;42.528;26.740;2024-01-30T07:01:13;101830.31;;;6.22;49.97
60019;BME280;45870;42.528;26.740;2024-01-30T07:03:38;101825.72;;;6.32;49.60
60019;BME280;45870;42.528;26.740;2024-01-30T07:06:03;101824.41;;;6.80;48.42
60019;BME280;45870;42.528;26.740;2024-01-30T07:08:29;101817.72;;;6.40;49.32
60019;BME280;45870;42.528;26.740;2024-01-30T07:10:54;101827.75;;;6.56;49.42
60019;BME280;45870;42.528;26.740;2024-01-30T07:13:21;101831.97;;;6.84;48.49
60019;BME280;45870;42.528;26.740;2024-01-30T07:15:46;101826.31;;;6.26;49.61
60019;BME280;45870;42.528;26.740;2024-01-30T07:18:12;101836.41;;;6.68;48.38
60019;BME280;45870;42.528;26.740;2024-01-30T07:20:38;101830.34;;;6.66;48.50
60019;BME280;45870;42.528;26.740;2024-01-30T07:23:10;101825.66;;;6.93;47.52
60019;BME280;45870;42.528;26.740;2024-01-30T07:25:39;101822.16;;;6.93;48.30
60019;BME280;45870;42.528;26.740;2024-01-30T07:28:06;101817.72;;;6.40;48.69
60019;BME280;45870;42.528;26.740;2024-01-30T07:30:32;101830.59;;;6.37;49.18
60019;BME280;45870;42.528;26.740;2024-01-30T07:32:57;101821.63;;;6.89;47.84
60019;BME280;45870;42.528;26.740;2024-01-30T07:35:23;101829.63;;;7.07;47.33
60019;BME280;45870;42.528;26.740;2024-01-30T07:37:48;101815.09;;;6.92;47.68
60019;BME280;45870;42.528;26.740;2024-01-30T07:40:14;101821.06;;;6.60;48.52
60019;BME280;45870;42.528;26.740;2024-01-30T07:42:39;101825.03;;;6.74;48.74
60019;BME280;45870;42.528;26.740;2024-01-30T07:45:05;101831.94;;;6.15;49.65
60019;BME280;45870;42.528;26.740;2024-01-30T07:47:30;101825.25;;;6.80;47.79
60019;BME280;45870;42.528;26.740;2024-01-30T07:49:55;101829.34;;;6.92;47.20
60019;BME280;45870;42.528;26.740;2024-01-30T07:52:23;101830.72;;;6.96;47.08
60019;BME280;45870;42.528;26.740;2024-01-30T07:54:49;101832.91;;;6.49;48.16
60019;BME280;45870;42.528;26.740;2024-01-30T07:57:15;101841.75;;;7.19;46.50
60019;BME280;45870;42.528;26.740;2024-01-30T07:59:44;101852.00;;;7.58;46.62
60019;BME280;45870;42.528;26.740;2024-01-30T08:02:09;101832.91;;;7.69;45.01
60019;BME280;45870;42.528;26.740;2024-01-30T08:04:35;101851.75;;;7.85;45.56
60019;BME280;45870;42.528;26.740;2024-01-30T08:07:00;101861.72;;;7.50;45.58
60019;BME280;45870;42.528;26.740;2024-01-30T08:09:26;101851.38;;;8.70;43.95
60019;BME280;45870;42.528;26.740;2024-01-30T08:11:51;101860.28;;;7.72;44.96
60019;BME280;45870;42.528;26.740;2024-01-30T08:14:17;101859.78;;;7.69;45.46
60019;BME280;45870;42.528;26.740;2024-01-30T08:16:42;101864.34;;;7.34;46.19
60019;BME280;45870;42.528;26.740;2024-01-30T08:19:07;101865.25;;;6.91;47.31
60019;BME280;45870;42.528;26.740;2024-01-30T08:21:33;101866.44;;;6.97;47.57
60019;BME280;45870;42.528;26.740;2024-01-30T08:24:04;101863.19;;;6.85;47.27
60019;BME280;45870;42.528;26.740;2024-01-30T08:26:30;101872.50;;;7.25;46.71
60019;BME280;45870;42.528;26.740;2024-01-30T08:28:55;101872.59;;;7.07;46.94
60019;BME280;45870;42.528;26.740;2024-01-30T08:31:21;101872.97;;;7.54;46.25
60019;BME280;45870;42.528;26.740;2024-01-30T08:33:46;101877.16;;;6.89;47.67
60019;BME280;45870;42.528;26.740;2024-01-30T08:36:11;101880.06;;;7.55;46.12
60019;BME280;45870;42.528;26.740;2024-01-30T08:38:37;101875.78;;;6.85;47.37
60019;BME280;45870;42.528;26.740;2024-01-30T08:41:02;101876.53;;;7.29;47.29
60019;BME280;45870;42.528;26.740;2024-01-30T08:43:28;101866.56;;;7.89;46.32
60019;BME280;45870;42.528;26.740;2024-01-30T08:45:54;101879.94;;;7.31;47.40
60019;BME280;45870;42.528;26.740;2024-01-30T08:48:19;101874.88;;;7.28;47.31
60019;BME280;45870;42.528;26.740;2024-01-30T08:50:44;101867.97;;;8.09;45.57
60019;BME280;45870;42.528;26.740;2024-01-30T08:53:10;101876.56;;;7.63;46.50
60019;BME280;45870;42.528;26.740;2024-01-30T08:55:35;101858.66;;;7.87;45.83
60019;BME280;45870;42.528;26.740;2024-01-30T08:58:00;101854.94;;;7.80;45.33
60019;BME280;45870;42.528;26.740;2024-01-30T09:00:27;101871.06;;;7.38;46.96
60019;BME280;45870;42.528;26.740;2024-01-30T09:02:53;101850.25;;;7.40;46.79
60019;BME280;45870;42.528;26.740;2024-01-30T09:05:18;101868.47;;;6.95;47.60
60019;BME280;45870;42.528;26.740;2024-01-30T09:07:43;101873.59;;;7.40;46.70
60019;BME280;45870;42.528;26.740;2024-01-30T09:10:09;101855.78;;;7.05;47.85
60019;BME280;45870;42.528;26.740;2024-01-30T09:12:35;101854.44;;;7.35;47.29
60019;BME280;45870;42.528;26.740;2024-01-30T09:15:00;101842.31;;;7.73;46.38
60019;BME280;45870;42.528;26.740;2024-01-30T09:17:26;101845.69;;;7.75;45.98
60019;BME280;45870;42.528;26.740;2024-01-30T09:19:51;101841.25;;;7.58;46.68
60019;BME280;45870;42.528;26.740;2024-01-30T09:22:16;101846.53;;;7.33;46.95
60019;BME280;45870;42.528;26.740;2024-01-30T09:24:42;101850.16;;;7.58;46.76
60019;BME280;45870;42.528;26.740;2024-01-30T09:27:07;101848.16;;;7.26;47.28
60019;BME280;45870;42.528;26.740;2024-01-30T09:29:33;101833.88;;;7.26;46.44
60019;BME280;45870;42.528;26.740;2024-01-30T09:32:01;101822.31;;;7.75;45.90
60019;BME280;45870;42.528;26.740;2024-01-30T09:34:26;101834.22;;;7.23;47.28
60019;BME280;45870;42.528;26.740;2024-01-30T09:36:52;101824.06;;;7.42;46.50
60019;BME280;45870;42.528;26.740;2024-01-30T09:39:17;101829.25;;;7.86;46.66
60019;BME280;45870;42.528;26.740;2024-01-30T09:41:46;101837.19;;;7.45;45.89
60019;BME280;45870;42.528;26.740;2024-01-30T09:44:13;101837.53;;;7.50;46.15
60019;BME280;45870;42.528;26.740;2024-01-30T09:46:40;101843.34;;;6.78;48.17
60019;BME280;45870;42.528;26.740;2024-01-30T09:49:07;101828.63;;;7.42;46.13
60019;BME280;45870;42.528;26.740;2024-01-30T09:51:34;101840.50;;;6.80;47.84
60019;BME280;45870;42.528;26.740;2024-01-30T09:54:00;101836.03;;;6.88;47.17
60019;BME280;45870;42.528;26.740;2024-01-30T09:56:25;101827.00;;;7.23;47.15
60019;BME280;45870;42.528;26.740;2024-01-30T09:58:50;101829.09;;;7.37;46.48
60019;BME280;45870;42.528;26.740;2024-01-30T10:01:17;101798.31;;;7.74;45.89
60019;BME280;45870;42.528;26.740;2024-01-30T10:03:44;101821.03;;;7.87;45.89
60019;BME280;45870;42.528;26.740;2024-01-30T10:06:09;101815.38;;;7.48;46.27
60019;BME280;45870;42.528;26.740;2024-01-30T10:08:35;101808.91;;;7.83;44.91
60019;BME280;45870;42.528;26.740;2024-01-30T10:11:00;101808.00;;;7.59;45.70
60019;BME280;45870;42.528;26.740;2024-01-30T10:13:27;101814.28;;;7.83;45.85
60019;BME280;45870;42.528;26.740;2024-01-30T10:15:52;101796.78;;;7.71;46.22
60019;BME280;45870;42.528;26.740;2024-01-30T10:18:18;101793.63;;;7.84;45.30
60019;BME280;45870;42.528;26.740;2024-01-30T10:20:43;101795.16;;;8.11;45.21
60019;BME280;45870;42.528;26.740;2024-01-30T10:23:09;101783.06;;;7.98;45.62
60019;BME280;45870;42.528;26.740;2024-01-30T10:25:35;101788.81;;;8.20;45.22
60019;BME280;45870;42.528;26.740;2024-01-30T10:28:01;101781.94;;;8.33;44.86
60019;BME280;45870;42.528;26.740;2024-01-30T10:30:27;101800.53;;;7.36;45.82
60019;BME280;45870;42.528;26.740;2024-01-30T10:32:53;101787.13;;;8.19;45.06
60019;BME280;45870;42.528;26.740;2024-01-30T10:35:18;101774.00;;;7.91;44.81
60019;BME280;45870;42.528;26.740;2024-01-30T10:37:44;101792.28;;;7.96;45.48
60019;BME280;45870;42.528;26.740;2024-01-30T10:40:12;101785.25;;;8.27;44.76
60019;BME280;45870;42.528;26.740;2024-01-30T10:42:38;101794.97;;;7.96;45.21
60019;BME280;45870;42.528;26.740;2024-01-30T10:45:08;101778.53;;;8.15;44.68
60019;BME280;45870;42.528;26.740;2024-01-30T10:47:34;101777.84;;;7.97;44.95
60019;BME280;45870;42.528;26.740;2024-01-30T10:50:01;101778.28;;;7.68;46.16
60019;BME280;45870;42.528;26.740;2024-01-30T10:52:28;101774.50;;;8.11;45.36
60019;BME280;45870;42.528;26.740;2024-01-30T10:54:55;101771.91;;;7.61;45.78
60019;BME280;45870;42.528;26.740;2024-01-30T10:57:22;101778.19;;;7.36;45.64
60019;BME280;45870;42.528;26.740;2024-01-30T10:59:48;101759.78;;;7.57;46.07
60019;BME280;45870;42.528;26.740;2024-01-30T11:02:13;101776.06;;;7.47;46.82
60019;BME280;45870;42.528;26.740;2024-01-30T11:04:42;101767.38;;;7.78;46.14
60019;BME280;45870;42.528;26.740;2024-01-30T11:07:17;101764.63;;;7.37;46.01
60019;BME280;45870;42.528;26.740;2024-01-30T11:09:52;101782.66;;;7.61;46.70
60019;BME280;45870;42.528;26.740;2024-01-30T11:12:22;101776.03;;;8.22;44.72
60019;BME280;45870;42.528;26.740;2024-01-30T11:14:48;101759.31;;;7.78;45.72
60019;BME280;45870;42.528;26.740;2024-01-30T11:17:13;101770.06;;;7.78;45.10
60019;BME280;45870;42.528;26.740;2024-01-30T11:19:38;101751.13;;;7.87;45.68
60019;BME280;45870;42.528;26.740;2024-01-30T11:22:07;101756.16;;;8.07;45.23
60019;BME280;45870;42.528;26.740;2024-01-30T11:24:40;101728.44;;;7.16;46.76
60019;BME280;45870;42.528;26.740;2024-01-30T11:27:08;101743.19;;;8.67;43.03
60019;BME280;45870;42.528;26.740;2024-01-30T11:29:34;101747.22;;;7.66;45.71
60019;BME280;45870;42.528;26.740;2024-01-30T11:32:00;101742.34;;;8.74;44.05
60019;BME280;45870;42.528;26.740;2024-01-30T11:34:25;101734.31;;;8.50;43.79
60019;BME280;45870;42.528;26.740;2024-01-30T11:37:01;101735.41;;;8.88;43.02
60019;BME280;45870;42.528;26.740;2024-01-30T11:39:29;101734.63;;;8.63;44.26
60019;BME280;45870;42.528;26.740;2024-01-30T11:41:55;101720.66;;;9.15;44.01
60019;BME280;45870;42.528;26.740;2024-01-30T11:44:20;101713.94;;;8.56;42.73
60019;BME280;45870;42.528;26.740;2024-01-30T11:46:49;101723.13;;;8.85;42.25
60019;BME280;45870;42.528;26.740;2024-01-30T11:49:15;101717.97;;;8.60;42.78
60019;BME280;45870;42.528;26.740;2024-01-30T11:51:41;101723.78;;;9.26;42.24
60019;BME280;45870;42.528;26.740;2024-01-30T11:54:07;101723.56;;;8.58;43.21
60019;BME280;45870;42.528;26.740;2024-01-30T11:56:32;101728.25;;;8.64;42.54
60019;BME280;45870;42.528;26.740;2024-01-30T11:58:58;101724.06;;;8.13;43.50
60019;BME280;45870;42.528;26.740;2024-01-30T12:01:25;101724.06;;;7.97;44.95
60019;BME280;45870;42.528;26.740;2024-01-30T12:03:51;101719.66;;;8.69;43.53
60019;BME280;45870;42.528;26.740;2024-01-30T12:06:17;101716.19;;;8.20;43.24
60019;BME280;45870;42.528;26.740;2024-01-30T12:08:42;101720.22;;;8.08;43.97
60019;BME280;45870;42.528;26.740;2024-01-30T12:11:08;101710.94;;;8.50;43.52
60019;BME280;45870;42.528;26.740;2024-01-30T12:13:33;101725.44;;;8.96;41.91
60019;BME280;45870;42.528;26.740;2024-01-30T12:15:59;101703.91;;;8.33;43.70
60019;BME280;45870;42.528;26.740;2024-01-30T12:18:25;101700.66;;;9.01;41.36
60019;BME280;45870;42.528;26.740;2024-01-30T12:20:57;101707.13;;;9.23;41.94
60019;BME280;45870;42.528;26.740;2024-01-30T12:23:23;101712.38;;;9.47;41.29
60019;BME280;45870;42.528;26.740;2024-01-30T12:25:51;101707.31;;;9.52;41.04
60019;BME280;45870;42.528;26.740;2024-01-30T12:28:16;101702.50;;;9.09;41.81
60019;BME280;45870;42.528;26.740;2024-01-30T12:30:42;101709.03;;;9.14;41.57
60019;BME280;45870;42.528;26.740;2024-01-30T12:33:07;101710.59;;;8.45;41.71
60019;BME280;45870;42.528;26.740;2024-01-30T12:35:35;101715.06;;;8.77;41.36
60019;BME280;45870;42.528;26.740;2024-01-30T12:38:01;101698.69;;;8.08;42.50
60019;BME280;45870;42.528;26.740;2024-01-30T12:40:27;101717.94;;;8.76;41.14
60019;BME280;45870;42.528;26.740;2024-01-30T12:42:55;101718.00;;;8.27;42.38